Time;durP1;ratioP1;P1;durP2;ratioP2;P2;SDS_P1;SDS_P2;PMS_P1;PMS_P2;Temp;Humidity;BMP_temperature;BMP_pressure;BME280_temperature;BME280_humidity;BME280_pressure;Samples;Min_cycle;Max_cycle;Signal;HPM_P1;HPM_P2
2021/09/22 00:01:02;;;;;;;19.30;10.60;;;14.20;99.90;;;;;;5052010;28;20042;-82
2021/09/22 00:03:28;;;;;;;15.93;10.25;;;14.20;99.90;;;;;;5071532;28;20059;-82
2021/09/22 00:05:57;;;;;;;19.17;10.35;;;14.10;99.90;;;;;;5071997;28;20037;-82
2021/09/22 00:08:23;;;;;;;18.92;10.25;;;14.10;99.90;;;;;;5036095;28;20087;-78
2021/09/22 00:10:48;;;;;;;15.25;9.70;;;14.10;99.90;;;;;;5037786;28;20044;-77
2021/09/22 00:13:14;;;;;;;16.08;9.85;;;14.10;99.90;;;;;;5070165;28;20351;-77
2021/09/22 00:15:40;;;;;;;18.35;9.90;;;14.00;99.90;;;;;;5053731;28;20052;-77
2021/09/22 00:18:05;;;;;;;14.05;9.73;;;14.00;99.90;;;;;;5070657;28;20039;-77
2021/09/22 00:20:32;;;;;;;17.08;9.90;;;14.00;99.90;;;;;;5070986;28;20041;-77
2021/09/22 00:22:58;;;;;;;14.70;9.80;;;14.00;99.90;;;;;;5053201;28;20533;-77
2021/09/22 00:25:25;;;;;;;14.50;10.45;;;14.00;99.90;;;;;;5068448;28;20063;-77
2021/09/22 00:27:53;;;;;;;15.93;10.50;;;14.10;99.90;;;;;;5053869;28;20123;-77
2021/09/22 00:30:19;;;;;;;14.80;9.98;;;14.00;99.90;;;;;;5070977;28;20040;-77
2021/09/22 00:32:47;;;;;;;16.75;10.30;;;13.90;99.90;;;;;;5050354;28;20056;-77
2021/09/22 00:35:14;;;;;;;16.67;10.38;;;13.90;99.90;;;;;;5049114;28;20037;-77
2021/09/22 00:37:40;;;;;;;17.55;10.00;;;13.90;99.90;;;;;;5070821;28;20032;-77
2021/09/22 00:40:07;;;;;;;12.90;9.48;;;14.00;99.90;;;;;;5053872;28;20032;-77
2021/09/22 00:42:33;;;;;;;17.38;10.27;;;13.90;99.90;;;;;;5068346;28;20119;-78
2021/09/22 00:45:06;;;;;;;13.55;9.68;;;13.90;99.90;;;;;;5070569;28;20044;-78
2021/09/22 00:47:32;;;;;;;17.17;9.35;;;13.80;99.90;;;;;;5070136;28;20037;-78
2021/09/22 00:49:58;;;;;;;14.55;9.50;;;13.90;99.90;;;;;;5053859;28;20052;-78
2021/09/22 00:52:24;;;;;;;17.33;11.05;;;13.80;99.90;;;;;;5069966;28;20051;-78
2021/09/22 00:54:51;;;;;;;18.02;9.95;;;13.80;99.90;;;;;;5053638;28;20115;-77
2021/09/22 00:57:21;;;;;;;14.40;10.45;;;13.90;99.90;;;;;;5068648;28;20445;-77
2021/09/22 00:59:47;;;;;;;17.85;10.25;;;13.80;99.90;;;;;;5070050;28;20064;-77
2021/09/22 01:02:13;;;;;;;18.10;10.02;;;13.70;99.90;;;;;;5072964;28;20482;-78
2021/09/22 01:04:42;;;;;;;15.95;10.30;;;13.70;99.90;;;;;;5073362;28;20088;-78
2021/09/22 01:07:11;;;;;;;14.00;10.02;;;13.70;99.90;;;;;;5073977;28;20529;-84
2021/09/22 01:09:38;;;;;;;17.67;9.88;;;13.60;99.90;;;;;;5073327;28;20036;-84
2021/09/22 01:12:04;;;;;;;12.77;9.80;;;13.60;99.90;;;;;;5073573;28;20048;-83
2021/09/22 01:14:30;;;;;;;14.70;10.13;;;13.60;99.90;;;;;;5055411;28;20466;-84
2021/09/22 01:16:56;;;;;;;13.73;9.73;;;13.60;99.90;;;;;;5074823;28;20071;-78
2021/09/22 01:19:23;;;;;;;15.43;10.05;;;13.50;99.90;;;;;;5057160;28;20040;-78
2021/09/22 01:21:51;;;;;;;15.50;9.98;;;13.60;99.90;;;;;;5056524;28;20036;-78
2021/09/22 01:24:19;;;;;;;13.75;9.73;;;13.60;99.90;;;;;;5073905;28;20463;-78
2021/09/22 01:26:46;;;;;;;18.77;10.13;;;13.50;99.90;;;;;;5073317;28;20158;-78
2021/09/22 01:29:12;;;;;;;17.92;10.00;;;13.50;99.90;;;;;;5052746;28;20041;-78
2021/09/22 01:31:40;;;;;;;16.23;10.35;;;13.50;99.90;;;;;;5053288;28;20098;-77
2021/09/22 01:34:09;;;;;;;15.88;10.55;;;14.30;99.90;;;;;;5073108;28;20041;-77
2021/09/22 01:36:35;;;;;;;13.38;9.20;;;13.50;99.90;;;;;;5056944;28;20048;-78
2021/09/22 01:39:01;;;;;;;19.02;10.10;;;13.50;99.90;;;;;;5073316;28;20475;-83
2021/09/22 01:41:26;;;;;;;12.20;9.40;;;13.50;99.90;;;;;;5073061;28;20051;-83
2021/09/22 01:43:53;;;;;;;14.40;9.95;;;13.80;99.90;;;;;;5073164;28;20040;-83
2021/09/22 01:46:19;;;;;;;13.30;9.43;;;13.70;99.90;;;;;;5071998;28;20074;-83
2021/09/22 01:48:48;;;;;;;18.50;9.73;;;13.50;99.90;;;;;;5056246;28;20123;-83
2021/09/22 01:51:14;;;;;;;13.45;8.60;;;13.40;99.90;;;;;;5074454;28;20123;-78
2021/09/22 01:53:39;;;;;;;13.98;9.60;;;13.50;99.90;;;;;;5056350;28;20673;-78
2021/09/22 01:56:07;;;;;;;14.98;9.95;;;13.40;99.90;;;;;;5054893;28;20470;-78
2021/09/22 01:58:32;;;;;;;19.00;10.52;;;13.50;99.90;;;;;;5044537;28;20044;-77
2021/09/22 02:01:02;;;;;;;17.75;10.20;;;13.40;99.90;;;;;;5036477;28;20044;-78
2021/09/22 02:03:28;;;;;;;18.00;9.98;;;13.40;99.90;;;;;;5051320;28;20040;-78
2021/09/22 02:05:54;;;;;;;14.18;9.30;;;13.30;99.90;;;;;;5072846;28;20050;-78
2021/09/22 02:08:19;;;;;;;13.20;9.10;;;13.30;99.90;;;;;;5072698;28;20082;-83
2021/09/22 02:10:46;;;;;;;16.00;9.50;;;13.30;99.90;;;;;;5039266;28;20044;-83
2021/09/22 02:13:11;;;;;;;15.23;9.40;;;13.30;99.90;;;;;;5070780;28;20052;-83
2021/09/22 02:15:38;;;;;;;17.38;9.70;;;13.30;99.90;;;;;;5055766;28;20447;-83
2021/09/22 02:18:03;;;;;;;16.17;9.27;;;13.30;99.90;;;;;;5055910;28;20063;-82
2021/09/22 02:20:29;;;;;;;13.20;8.85;;;13.50;99.90;;;;;;5072344;28;20427;-83
2021/09/22 02:22:55;;;;;;;15.02;9.52;;;13.30;99.90;;;;;;5055673;28;20032;-82
2021/09/22 02:25:21;;;;;;;14.85;9.77;;;13.20;99.90;;;;;;5054777;28;20529;-82
2021/09/22 02:27:47;;;;;;;15.63;8.93;;;13.40;99.90;;;;;;5072369;28;20083;-83
2021/09/22 02:30:17;;;;;;;12.43;9.30;;;13.20;99.90;;;;;;5070020;28;20048;-82
2021/09/22 02:32:43;;;;;;;14.98;9.88;;;13.30;99.90;;;;;;5054614;28;20032;-82
2021/09/22 02:35:10;;;;;;;15.20;10.13;;;13.20;99.90;;;;;;5071610;28;20049;-77
2021/09/22 02:37:36;;;;;;;17.65;10.02;;;13.20;99.90;;;;;;5072153;28;20041;-77
2021/09/22 02:40:09;;;;;;;13.57;9.60;;;13.30;99.90;;;;;;5055625;28;20444;-77
2021/09/22 02:42:35;;;;;;;15.18;10.27;;;13.20;99.90;;;;;;5071232;28;20382;-77
2021/09/22 02:45:01;;;;;;;17.27;11.05;;;13.20;99.90;;;;;;5072295;28;20516;-77
2021/09/22 02:47:27;;;;;;;15.13;10.10;;;13.50;99.90;;;;;;5069919;28;20074;-77
2021/09/22 02:49:53;;;;;;;12.98;9.32;;;13.10;99.90;;;;;;5071756;28;20041;-82
2021/09/22 02:52:19;;;;;;;12.43;9.38;;;13.10;99.90;;;;;;5055200;28;20051;-82
2021/09/22 02:54:54;;;;;;;15.55;9.98;;;13.10;99.90;;;;;;5054854;28;20048;-78
2021/09/22 02:57:20;;;;;;;;;;;13.10;99.90;;;;;;5038876;28;20037;-77
2021/09/22 02:59:45;;;;;;;16.17;10.38;;;13.10;99.90;;;;;;5061657;28;19920;-77
2021/09/22 03:02:11;;;;;;;18.05;10.48;;;13.00;99.90;;;;;;5072844;28;20055;-77
2021/09/22 03:04:37;;;;;;;13.63;11.00;;;13.10;99.90;;;;;;5037495;28;20048;-78
2021/09/22 03:07:03;;;;;;;12.80;10.07;;;13.00;99.90;;;;;;5055131;28;20076;-78
2021/09/22 03:09:29;;;;;;;14.10;10.38;;;13.10;99.90;;;;;;5071597;28;20043;-78
2021/09/22 03:11:55;;;;;;;13.30;10.10;;;13.00;99.90;;;;;;5054930;28;20402;-78
2021/09/22 03:14:21;;;;;;;12.77;10.63;;;13.00;99.90;;;;;;5071369;28;20044;-78
2021/09/22 03:16:47;;;;;;;12.73;10.25;;;13.10;99.90;;;;;;5054945;28;20037;-77
2021/09/22 03:19:13;;;;;;;15.25;10.10;;;13.00;99.90;;;;;;5069640;28;20051;-83
2021/09/22 03:21:38;;;;;;;15.43;11.18;;;12.90;99.90;;;;;;5054218;28;20048;-83
2021/09/22 03:24:04;;;;;;;13.48;10.88;;;13.00;99.90;;;;;;5054820;28;20119;-83
2021/09/22 03:26:30;;;;;;;13.45;10.55;;;13.00;99.90;;;;;;5071399;28;20040;-83
2021/09/22 03:28:56;;;;;;;11.55;10.27;;;13.00;99.90;;;;;;5033423;28;20041;-77
2021/09/22 03:31:21;;;;;;;12.15;10.05;;;13.00;99.90;;;;;;5066504;28;20128;-78
2021/09/22 03:33:47;;;;;;;10.75;9.65;;;13.00;99.90;;;;;;5054782;28;20432;-78
2021/09/22 03:36:13;;;;;;;14.75;10.43;;;13.00;99.90;;;;;;5071314;28;20040;-82
2021/09/22 03:38:39;;;;;;;11.38;9.93;;;13.30;99.90;;;;;;5071155;28;20076;-82
2021/09/22 03:41:05;;;;;;;11.13;9.30;;;13.10;99.90;;;;;;5054453;28;20532;-78
2021/09/22 03:43:30;;;;;;;10.80;9.30;;;13.00;99.90;;;;;;5054339;28;20127;-78
2021/09/22 03:45:56;;;;;;;10.43;9.23;;;13.10;99.90;;;;;;5052160;28;20600;-77
2021/09/22 03:48:23;;;;;;;10.82;9.68;;;13.10;99.90;;;;;;5071181;28;20425;-77
2021/09/22 03:50:49;;;;;;;10.13;9.07;;;13.10;99.90;;;;;;5070905;28;20521;-77
2021/09/22 03:53:19;;;;;;;13.82;10.25;;;13.10;99.90;;;;;;5070372;28;20045;-82
2021/09/22 03:55:46;;;;;;;10.60;9.55;;;13.10;99.90;;;;;;5054317;28;20040;-78
2021/09/22 03:58:12;;;;;;;11.00;9.13;;;13.10;99.90;;;;;;5053914;28;20036;-82
2021/09/22 04:00:38;;;;;;;11.85;10.32;;;13.10;99.90;;;;;;5069485;28;20078;-84
2021/09/22 04:03:04;;;;;;;11.65;10.20;;;13.10;99.90;;;;;;5070490;28;20498;-84
2021/09/22 04:05:30;;;;;;;14.32;10.00;;;13.10;99.90;;;;;;5070772;28;20056;-84
2021/09/22 04:07:56;;;;;;;12.20;10.52;;;13.10;99.90;;;;;;5053959;28;20055;-78
2021/09/22 04:10:21;;;;;;;10.38;9.30;;;13.10;99.90;;;;;;5054092;28;20048;-78
2021/09/22 04:12:47;;;;;;;14.02;10.50;;;13.10;99.90;;;;;;5070112;28;20041;-78
2021/09/22 04:15:13;;;;;;;14.02;11.13;;;13.10;99.90;;;;;;5054208;28;20457;-78
2021/09/22 04:17:39;;;;;;;15.00;10.88;;;13.10;99.90;;;;;;5052741;28;20119;-77
2021/09/22 04:20:05;;;;;;;11.63;10.43;;;13.20;99.90;;;;;;5029576;28;20470;-83
2021/09/22 04:22:32;;;;;;;14.50;10.82;;;13.20;99.90;;;;;;5070353;28;20515;-83
2021/09/22 04:24:58;;;;;;;13.15;11.50;;;13.20;99.90;;;;;;5053934;28;20048;-83
2021/09/22 04:27:24;;;;;;;13.52;12.02;;;13.20;99.90;;;;;;5054397;28;20044;-83
2021/09/22 04:29:50;;;;;;;12.93;11.70;;;13.20;99.90;;;;;;5070251;28;20040;-78
2021/09/22 04:32:16;;;;;;;14.15;12.65;;;13.30;99.90;;;;;;5052484;28;20063;-77
2021/09/22 04:34:41;;;;;;;16.23;12.48;;;13.20;99.90;;;;;;5069920;28;20048;-77
2021/09/22 04:37:08;;;;;;;17.33;12.45;;;13.20;99.90;;;;;;5056971;28;20036;-77
2021/09/22 04:39:35;;;;;;;16.02;13.13;;;13.20;99.90;;;;;;5075586;28;20040;-77
2021/09/22 04:42:01;;;;;;;18.23;13.02;;;13.20;99.90;;;;;;5057712;28;20093;-77
2021/09/22 04:44:27;;;;;;;16.65;13.98;;;13.70;99.90;;;;;;5057573;28;20044;-77
2021/09/22 04:46:52;;;;;;;18.67;14.10;;;13.20;99.90;;;;;;5039275;28;20123;-77
2021/09/22 04:49:18;;;;;;;17.80;14.10;;;13.20;99.90;;;;;;5056076;28;20128;-77
2021/09/22 04:51:44;;;;;;;17.25;13.55;;;13.20;99.90;;;;;;5057290;28;20098;-77
2021/09/22 04:54:10;;;;;;;17.92;14.18;;;13.20;99.90;;;;;;5039114;28;20450;-78
2021/09/22 04:56:35;;;;;;;20.75;14.75;;;13.30;99.90;;;;;;5074012;28;20040;-78
2021/09/22 04:59:01;;;;;;;16.60;14.70;;;13.30;99.90;;;;;;5048224;28;20037;-77
2021/09/22 05:01:27;;;;;;;18.83;15.20;;;13.30;99.90;;;;;;5068540;28;20394;-78
2021/09/22 05:03:55;;;;;;;20.73;15.32;;;13.30;99.90;;;;;;5046848;28;20056;-78
2021/09/22 05:06:21;;;;;;;17.73;14.77;;;13.40;99.90;;;;;;5057502;28;20044;-78
2021/09/22 05:08:47;;;;;;;18.23;14.63;;;13.40;99.90;;;;;;5040557;28;20063;-78
2021/09/22 05:11:13;;;;;;;16.65;14.88;;;13.30;99.90;;;;;;5057059;28;20045;-78
2021/09/22 05:13:39;;;;;;;18.15;15.27;;;13.40;99.90;;;;;;5039920;28;20052;-78
2021/09/22 05:16:04;;;;;;;21.50;15.63;;;13.50;99.90;;;;;;5039346;28;20037;-78
2021/09/22 05:18:33;;;;;;;17.15;14.68;;;13.30;99.90;;;;;;5071893;28;20036;-77
2021/09/22 05:20:59;;;;;;;18.38;15.70;;;13.40;99.90;;;;;;5056145;28;20044;-78
2021/09/22 05:23:25;;;;;;;19.40;15.25;;;13.40;99.90;;;;;;5068130;28;20394;-78
2021/09/22 05:25:50;;;;;;;17.00;14.90;;;13.30;99.90;;;;;;5066506;28;20147;-77
2021/09/22 05:28:16;;;;;;;17.38;15.18;;;13.40;99.90;;;;;;5039922;28;20036;-77
2021/09/22 05:30:43;;;;;;;17.40;14.73;;;13.40;99.90;;;;;;5056641;28;20043;-77
2021/09/22 05:33:12;;;;;;;18.80;15.65;;;13.40;99.90;;;;;;5053868;28;20513;-78
2021/09/22 05:35:38;;;;;;;25.17;16.33;;;13.30;99.90;;;;;;5065506;28;20048;-77
2021/09/22 05:38:05;;;;;;;18.30;14.77;;;13.40;99.90;;;;;;5055188;28;20052;-77
2021/09/22 05:40:31;;;;;;;17.15;14.80;;;13.20;99.90;;;;;;5064736;28;20078;-77
2021/09/22 05:42:58;;;;;;;22.13;16.10;;;13.40;99.90;;;;;;5074568;28;20032;-77
2021/09/22 05:45:23;;;;;;;21.02;16.08;;;13.30;99.90;;;;;;5072417;28;20044;-77
2021/09/22 05:47:49;;;;;;;20.33;16.27;;;13.30;99.90;;;;;;5056555;28;20040;-77
2021/09/22 05:50:15;;;;;;;21.20;15.80;;;13.30;99.90;;;;;;5054888;28;20112;-77
2021/09/22 05:52:41;;;;;;;26.02;16.27;;;13.30;99.90;;;;;;5045995;28;20479;-78
2021/09/22 05:55:06;;;;;;;21.02;17.13;;;13.30;99.90;;;;;;5052881;28;20041;-77
2021/09/22 05:57:32;;;;;;;21.60;17.40;;;13.30;99.90;;;;;;5050005;28;20040;-77
2021/09/22 05:59:58;;;;;;;26.30;17.02;;;13.30;99.90;;;;;;5045429;28;20402;-77
2021/09/22 06:02:24;;;;;;;22.67;18.42;;;13.40;99.90;;;;;;5049890;28;20125;-78
2021/09/22 06:04:49;;;;;;;23.15;18.80;;;13.40;99.90;;;;;;5055581;28;20060;-87
2021/09/22 06:07:23;;;;;;;23.55;18.83;;;13.30;99.90;;;;;;5065596;28;20040;-86
2021/09/22 06:09:51;;;;;;;22.50;18.80;;;13.40;99.90;;;;;;5048932;28;20044;-87
2021/09/22 06:12:20;;;;;;;24.70;18.83;;;13.20;99.90;;;;;;5073457;28;20133;-84
2021/09/22 06:14:45;;;;;;;22.35;17.83;;;13.30;99.90;;;;;;5036565;28;20039;-89
2021/09/22 06:17:11;;;;;;;24.95;19.33;;;13.30;99.90;;;;;;5045466;28;20033;-84
2021/09/22 06:19:37;;;;;;;25.42;19.75;;;13.30;99.90;;;;;;5086270;28;20051;-83
2021/09/22 06:22:03;;;;;;;26.25;19.45;;;13.40;99.90;;;;;;5032368;28;20383;-90
2021/09/22 06:24:32;;;;;;;27.00;19.77;;;13.40;99.90;;;;;;5050708;28;20421;-84
2021/09/22 06:26:58;;;;;;;25.90;20.08;;;13.40;99.90;;;;;;5048245;28;20047;-78
2021/09/22 06:29:23;;;;;;;25.42;20.15;;;13.40;99.90;;;;;;5049025;28;20036;-79
2021/09/22 06:31:49;;;;;;;25.42;20.55;;;13.50;99.90;;;;;;5038379;28;20048;-79
2021/09/22 06:34:15;;;;;;;31.30;20.00;;;13.60;99.90;;;;;;5055060;28;20379;-79
2021/09/22 06:36:40;;;;;;;31.15;21.08;;;13.50;99.90;;;;;;5037740;28;20478;-81
2021/09/22 06:39:06;;;;;;;30.52;20.77;;;13.50;99.90;;;;;;5054555;28;20044;-81
2021/09/22 06:41:33;;;;;;;27.80;19.83;;;13.50;99.90;;;;;;5070982;28;20039;-80
2021/09/22 06:44:00;;;;;;;28.27;19.95;;;13.50;99.90;;;;;;5069156;28;20045;-79
2021/09/22 06:46:26;;;;;;;26.30;20.25;;;13.50;99.90;;;;;;5052067;28;20048;-79
2021/09/22 06:48:52;;;;;;;26.80;20.15;;;13.40;99.90;;;;;;5067569;28;20441;-81
2021/09/22 06:51:21;;;;;;;29.58;19.65;;;13.60;99.90;;;;;;5053005;28;20083;-81
2021/09/22 06:53:47;;;;;;;26.02;19.70;;;13.50;99.90;;;;;;5064810;28;20144;-80
2021/09/22 06:56:13;;;;;;;25.70;19.92;;;13.60;99.90;;;;;;5067913;28;20040;-80
2021/09/22 06:58:39;;;;;;;27.85;18.77;;;14.00;99.90;;;;;;5057032;28;20075;-78
2021/09/22 07:01:05;;;;;;;27.85;19.33;;;13.60;99.90;;;;;;5062643;28;20072;-80
2021/09/22 07:03:30;;;;;;;30.98;20.40;;;13.60;99.90;;;;;;5078824;28;20040;-84
2021/09/22 07:05:56;;;;;;;29.00;20.15;;;13.60;99.90;;;;;;5070490;28;20079;-80
2021/09/22 07:08:23;;;;;;;24.65;18.30;;;13.60;99.90;;;;;;5063285;28;20036;-79
2021/09/22 07:10:49;;;;;;;31.80;19.85;;;13.60;99.90;;;;;;5035906;28;20082;-79
2021/09/22 07:13:16;;;;;;;27.33;19.17;;;13.70;99.90;;;;;;5049577;28;20079;-78
2021/09/22 07:15:42;;;;;;;26.85;19.58;;;13.80;99.90;;;;;;5069095;28;20498;-78
2021/09/22 07:18:09;;;;;;;32.80;20.27;;;13.80;99.90;;;;;;5058133;28;20037;-78
2021/09/22 07:21:04;;;;;;;;;;;;;;;;;;;;;
2021/09/22 07:24:25;;;;;;;;;;;;;;;;;;;;;
2021/09/22 07:31:27;;;;;;;;;;;;;;;;;;;;;
2021/09/22 07:51:39;;;;;;;21.50;17.53;;;13.90;99.90;;;;;;5083806;27;1978554;-78
2021/09/22 07:54:05;;;;;;;24.98;17.38;;;14.20;99.90;;;;;;5088329;27;20062;-78
2021/09/22 07:56:31;;;;;;;23.33;17.02;;;14.20;99.90;;;;;;5128570;27;20387;-79
2021/09/22 07:58:56;;;;;;;22.48;17.15;;;14.30;99.90;;;;;;5117951;28;20031;-78
2021/09/22 08:01:22;;;;;;;23.95;17.55;;;14.30;99.90;;;;;;5112071;28;20122;-78
2021/09/22 08:03:48;;;;;;;28.55;19.23;;;14.30;99.90;;;;;;5106847;27;20039;-78
2021/09/22 08:06:13;;;;;;;26.98;18.75;;;14.60;99.90;;;;;;5125477;27;20383;-79
2021/09/22 08:08:39;;;;;;;29.20;18.67;;;14.40;99.90;;;;;;5120414;27;20047;-78
2021/09/22 08:11:05;;;;;;;26.55;17.45;;;14.40;99.90;;;;;;5077047;27;20077;-79
2021/09/22 08:13:31;;;;;;;25.92;17.95;;;14.50;99.90;;;;;;5101654;27;20031;-79
2021/09/22 08:15:56;;;;;;;24.02;18.35;;;14.50;99.90;;;;;;5095704;27;20035;-79
2021/09/22 08:18:22;;;;;;;30.50;19.08;;;14.50;99.90;;;;;;5106096;27;20039;-79
2021/09/22 08:20:48;;;;;;;28.40;19.83;;;14.60;99.90;;;;;;5100737;27;20043;-81
2021/09/22 08:23:22;;;;;;;28.15;19.70;;;14.60;99.90;;;;;;5100872;27;20030;-79
2021/09/22 08:25:48;;;;;;;29.40;19.92;;;14.70;99.90;;;;;;5113481;27;20035;-79
2021/09/22 08:28:14;;;;;;;28.58;21.77;;;14.80;99.90;;;;;;5095614;27;20036;-79
2021/09/22 08:30:40;;;;;;;30.60;21.65;;;14.80;99.90;;;;;;5109328;27;20043;-79
2021/09/22 08:33:12;;;;;;;31.60;22.27;;;14.80;99.90;;;;;;5093953;27;20523;-79
2021/09/22 08:35:40;;;;;;;32.20;22.83;;;14.80;99.90;;;;;;5096321;27;20046;-79
2021/09/22 08:38:09;;;;;;;33.33;22.88;;;14.90;99.90;;;;;;5090144;27;20088;-79
2021/09/22 08:41:00;;;;;;;36.33;24.00;;;14.90;99.90;;;;;;5126960;27;20440;-79
2021/09/22 08:43:28;;;;;;;36.33;24.13;;;14.90;99.90;;;;;;5080784;27;20047;-79
2021/09/22 08:45:56;;;;;;;35.45;25.45;;;14.90;99.90;;;;;;5099407;27;20040;-79
2021/09/22 08:48:24;;;;;;;36.47;25.10;;;14.90;99.90;;;;;;5090732;27;20042;-79
2021/09/22 08:50:58;;;;;;;33.72;25.50;;;15.00;99.90;;;;;;5078949;28;20048;-79
2021/09/22 08:53:32;;;;;;;39.28;27.02;;;15.00;99.90;;;;;;5071648;28;20235;-79
2021/09/22 08:55:58;;;;;;;37.83;26.60;;;15.10;99.90;;;;;;5058092;28;20134;-79
2021/09/22 08:58:24;;;;;;;41.88;27.85;;;15.10;99.90;;;;;;5072401;28;20040;-79
2021/09/22 09:00:50;;;;;;;42.42;27.42;;;15.10;99.90;;;;;;5069996;28;20029;-79
2021/09/22 09:03:39;;;;;;;44.28;27.90;;;15.20;99.90;;;;;;5071479;28;20558;-79
2021/09/22 09:06:17;;;;;;;40.83;27.17;;;15.20;99.90;;;;;;5063772;28;20041;-79
2021/09/22 09:08:43;;;;;;;46.80;28.40;;;15.30;99.90;;;;;;5070875;28;20046;-79
2021/09/22 09:11:10;;;;;;;42.55;28.02;;;15.30;99.90;;;;;;5078000;28;20037;-79
2021/09/22 09:13:50;;;;;;;47.20;28.42;;;15.40;99.90;;;;;;5061661;28;20080;-78
2021/09/22 09:16:21;;;;;;;41.22;27.15;;;15.40;99.90;;;;;;5076185;28;20097;-79
2021/09/22 09:18:53;;;;;;;41.50;27.83;;;15.50;99.90;;;;;;5085832;28;20048;-79
2021/09/22 09:21:19;;;;;;;46.00;26.90;;;15.60;99.90;;;;;;5079366;28;20114;-79
2021/09/22 09:23:50;;;;;;;42.53;27.33;;;15.70;99.90;;;;;;5066019;28;20040;-79
2021/09/22 09:26:20;;;;;;;48.25;27.98;;;15.70;99.90;;;;;;5069982;28;20048;-76
2021/09/22 09:28:49;;;;;;;46.55;28.67;;;15.80;99.90;;;;;;5086061;28;20036;-77
2021/09/22 09:31:15;;;;;;;46.03;27.88;;;15.90;99.90;;;;;;5060149;28;20047;-78
2021/09/22 09:33:50;;;;;;;44.60;28.60;;;15.90;99.90;;;;;;5063164;28;20394;-78
2021/09/22 09:36:17;;;;;;;53.25;30.63;;;16.00;99.90;;;;;;5067103;28;20050;-78
2021/09/22 09:39:13;;;;;;;44.65;29.90;;;16.00;99.90;;;;;;5068302;28;20040;-78
2021/09/22 09:41:51;;;;;;;52.23;29.93;;;16.00;99.90;;;;;;5078211;28;20045;-79
2021/09/22 09:44:21;;;;;;;45.65;29.60;;;16.10;99.90;;;;;;5063931;28;20486;-84
2021/09/22 09:46:47;;;;;;;46.45;28.65;;;16.10;99.90;;;;;;5075145;28;20025;-87
2021/09/22 09:49:36;;;;;;;49.95;29.65;;;16.20;99.90;;;;;;5063189;28;20040;-88
2021/09/22 09:52:02;;;;;;;48.72;30.45;;;16.30;99.90;;;;;;5086384;28;20056;-82
2021/09/22 09:54:36;;;;;;;47.53;29.65;;;16.30;99.90;;;;;;5066691;28;20093;-79
2021/09/22 09:57:16;;;;;;;51.78;30.15;;;16.40;99.90;;;;;;5079967;28;20457;-83
2021/09/22 09:59:53;;;;;;;49.60;28.95;;;16.50;99.90;;;;;;5082299;28;20048;-82
2021/09/22 10:02:24;;;;;;;48.78;29.27;;;16.60;99.90;;;;;;5096579;28;20042;-82
2021/09/22 10:04:50;;;;;;;47.58;27.40;;;16.80;99.90;;;;;;5098275;28;20036;-82
2021/09/22 10:07:16;;;;;;;48.70;26.67;;;16.80;99.90;;;;;;5092902;28;20067;-83
2021/09/22 10:09:42;;;;;;;48.60;27.25;;;16.90;99.90;;;;;;5082301;28;20436;-82
2021/09/22 10:12:09;;;;;;;49.17;28.65;;;16.90;99.90;;;;;;5096047;28;20040;-83
2021/09/22 10:14:36;;;;;;;41.08;25.60;;;17.00;99.90;;;;;;5074318;28;20040;-82
2021/09/22 10:17:02;;;;;;;45.55;27.65;;;17.00;99.90;;;;;;5089400;28;20130;-82
2021/09/22 10:19:29;;;;;;;41.00;27.05;;;16.90;99.90;;;;;;5089037;28;20071;-83
2021/09/22 10:21:56;;;;;;;39.88;25.75;;;16.90;99.90;;;;;;5080915;28;20048;-83
2021/09/22 10:24:22;;;;;;;43.15;27.10;;;16.90;99.90;;;;;;5077320;28;20461;-82
2021/09/22 10:26:49;;;;;;;49.20;27.50;;;16.90;99.90;;;;;;5090564;28;20383;-82
2021/09/22 10:29:23;;;;;;;46.05;26.50;;;17.10;99.90;;;;;;5088660;28;20058;-82
2021/09/22 10:31:49;;;;;;;36.47;24.33;;;17.10;99.90;;;;;;5088675;28;20099;-77
2021/09/22 10:34:36;;;;;;;44.28;25.95;;;17.10;99.90;;;;;;5089248;28;20557;-79
2021/09/22 10:37:28;;;;;;;37.50;24.73;;;17.20;99.90;;;;;;5088964;28;20390;-79
2021/09/22 10:39:54;;;;;;;32.05;23.52;;;17.20;99.90;;;;;;5074243;28;20038;-79
2021/09/22 10:42:29;;;;;;;35.65;22.58;;;17.20;99.90;;;;;;5081391;28;20464;-79
2021/09/22 10:45:15;;;;;;;37.38;23.15;;;17.30;99.90;;;;;;5097515;28;20047;-79
2021/09/22 10:47:41;;;;;;;36.80;22.73;;;17.30;99.90;;;;;;5088195;28;20089;-79
2021/09/22 10:50:08;;;;;;;34.95;22.92;;;17.40;99.90;;;;;;5089117;28;20064;-80
2021/09/22 10:52:37;;;;;;;38.38;23.10;;;17.40;99.90;;;;;;5088871;28;20505;-79
2021/09/22 10:55:16;;;;;;;35.50;23.10;;;17.50;99.90;;;;;;5103609;28;20848;-79
2021/09/22 10:57:47;;;;;;;33.00;21.42;;;17.60;99.90;;;;;;5074315;28;20058;-79
2021/09/22 11:00:17;;;;;;;39.00;22.80;;;17.60;99.90;;;;;;5073983;28;20047;-84
2021/09/22 11:02:53;;;;;;;31.30;20.65;;;17.60;99.90;;;;;;5102604;28;20036;-79
2021/09/22 11:05:28;;;;;;;39.67;21.25;;;17.70;99.90;;;;;;5102796;28;20485;-79
2021/09/22 11:08:07;;;;;;;30.23;20.55;;;17.70;99.90;;;;;;5096254;28;20481;-79
2021/09/22 11:10:51;;;;;;;32.97;22.10;;;17.80;99.90;;;;;;5094890;28;20066;-79
2021/09/22 11:13:20;;;;;;;33.67;21.35;;;17.80;99.90;;;;;;5103167;28;20089;-79
2021/09/22 11:16:46;;;;;;;31.00;20.25;;;17.90;99.90;;;;;;5093564;28;20081;-79
2021/09/22 11:19:12;;;;;;;42.83;23.50;;;18.00;99.90;;;;;;5088074;28;20390;-79
2021/09/22 11:21:38;;;;;;;35.88;23.52;;;18.10;99.90;;;;;;5074378;28;20031;-79
2021/09/22 11:24:14;;;;;;;34.05;22.27;;;18.10;99.90;;;;;;5095785;28;20028;-80
2021/09/22 11:27:06;;;;;;;31.98;18.58;;;18.20;99.90;;;;;;5088424;28;20052;-84
2021/09/22 11:30:27;;;;;;;29.77;15.85;;;18.30;99.90;;;;;;5095319;28;20040;-81
2021/09/22 11:35:54;;;;;;;28.20;14.90;;;18.30;99.90;;;;;;5082839;28;20568;-78
2021/09/22 11:38:28;;;;;;;24.48;15.15;;;18.30;99.90;;;;;;5082140;28;20036;-89
2021/09/22 11:40:53;;;;;;;27.02;12.43;;;18.20;99.90;;;;;;5096509;28;20044;-88
2021/09/22 11:43:49;;;;;;;25.80;11.45;;;18.30;99.90;;;;;;5067761;28;20046;-85
2021/09/22 11:49:48;;;;;;;19.90;9.48;;;18.30;99.90;;;;;;5088971;28;20056;-78
2021/09/22 11:53:17;;;;;;;19.08;8.68;;;18.30;99.90;;;;;;5093007;28;20039;-78
2021/09/22 11:55:50;;;;;;;18.13;8.77;;;18.40;99.90;;;;;;5084849;28;20449;-85
2021/09/22 11:58:38;;;;;;;15.32;8.43;;;18.40;99.90;;;;;;5081290;28;20141;-77
2021/09/22 12:01:10;;;;;;;18.88;7.65;;;18.60;99.90;;;;;;5077366;28;20369;-78
2021/09/22 12:03:39;;;;;;;16.75;7.65;;;18.70;99.90;;;;;;5083443;28;20480;-85
2021/09/22 12:06:06;;;;;;;19.35;7.05;;;18.70;99.90;;;;;;5084508;28;20437;-78
2021/09/22 12:09:07;;;;;;;18.13;6.55;;;18.80;99.90;;;;;;5100347;28;20096;-79
2021/09/22 12:12:53;;;;;;;;;;;;;;;;;;;;;
2021/09/22 12:15:38;;;;;;;17.08;7.43;;;18.90;99.90;;;;;;5120026;28;20071;-78
2021/09/22 12:18:04;;;;;;;18.88;7.03;;;18.90;99.90;;;;;;5091789;28;20040;-78
2021/09/22 12:20:53;;;;;;;15.35;7.88;;;18.90;99.90;;;;;;5071762;28;20059;-84
2021/09/22 12:23:48;;;;;;;14.52;7.22;;;19.00;99.90;;;;;;5088206;28;20062;-85
2021/09/22 12:33:27;;;;;;;15.30;6.53;;;19.10;99.90;;;;;;5096309;27;20039;-88
2021/09/22 12:36:10;;;;;;;13.68;4.57;;;19.20;99.90;;;;;;5089757;27;20067;-88
2021/09/22 12:38:52;;;;;;;;;;;19.20;99.90;;;;;;5105138;27;20038;-89
2021/09/22 12:41:27;;;;;;;18.35;5.22;;;19.30;99.90;;;;;;5102274;27;20045;-88
2021/09/22 12:44:12;;;;;;;15.32;5.05;;;19.60;99.90;;;;;;5090305;27;20545;-89
2021/09/22 12:46:50;;;;;;;11.60;4.70;;;19.30;99.90;;;;;;5088900;27;20496;-89
2021/09/22 12:49:19;;;;;;;16.05;5.82;;;19.90;99.90;;;;;;5088939;28;20088;-81
2021/09/22 12:51:51;;;;;;;11.20;6.22;;;19.40;99.90;;;;;;5101415;27;20138;-78
2021/09/22 12:54:17;;;;;;;16.42;5.88;;;19.40;99.90;;;;;;5104960;27;20039;-80
2021/09/22 12:56:43;;;;;;;15.73;4.97;;;19.50;99.90;;;;;;5104300;27;20500;-80
2021/09/22 12:59:45;;;;;;;11.13;4.97;;;19.50;99.90;;;;;;5101855;27;20111;-80
2021/09/22 13:02:25;;;;;;;16.17;6.35;;;19.50;99.90;;;;;;4997197;28;20041;-79
2021/09/22 13:04:50;;;;;;;16.60;6.35;;;19.50;99.90;;;;;;5090040;27;20512;-80
2021/09/22 13:07:23;;;;;;;16.63;6.47;;;19.50;99.90;;;;;;5108760;27;20035;-79
2021/09/22 13:10:19;;;;;;;16.23;5.93;;;19.50;99.90;;;;;;5076729;28;20036;-82
2021/09/22 13:12:47;;;;;;;17.20;5.70;;;19.60;99.90;;;;;;5076028;27;20044;-81
2021/09/22 13:15:26;;;;;;;13.15;5.97;;;19.60;99.90;;;;;;5075257;27;20492;-80
2021/09/22 13:17:54;;;;;;;17.98;7.13;;;19.60;99.90;;;;;;5092242;28;20035;-81
2021/09/22 13:20:20;;;;;;;18.20;5.15;;;19.80;99.90;;;;;;5093038;27;20399;-80
2021/09/22 13:22:46;;;;;;;13.40;4.85;;;19.80;99.90;;;;;;5099052;27;20052;-81
2021/09/22 13:25:12;;;;;;;12.20;5.57;;;19.80;99.90;;;;;;5089926;27;20032;-80